Time;durP1;ratioP1;P1;durP2;ratioP2;P2;SDS_P1;SDS_P2;PMS_P1;PMS_P2;Temp;Humidity;BMP_temperature;BMP_pressure;BME280_temperature;BME280_humidity;BME280_pressure;Samples;Min_cycle;Max_cycle;Signal;HPM_P1;HPM_P2
2020/12/22 00:02:25;;;;;;;15.93;14.23;;;12.60;94.70;;;;;;4438559;32;20208;-66
2020/12/22 00:04:51;;;;;;;15.93;13.57;;;12.70;94.70;;;;;;4439058;32;20170;-68
2020/12/22 00:07:17;;;;;;;15.57;13.93;;;12.60;94.70;;;;;;4437829;32;20218;-70
2020/12/22 00:09:44;;;;;;;15.20;13.43;;;12.70;94.70;;;;;;4444358;32;20217;-67
2020/12/22 00:12:12;;;;;;;14.63;12.37;;;12.70;94.70;;;;;;4447576;32;20211;-68
2020/12/22 00:14:38;;;;;;;12.93;10.83;;;12.70;94.70;;;;;;4448400;32;20452;-66
2020/12/22 00:17:05;;;;;;;15.10;12.17;;;12.70;94.70;;;;;;4443402;32;20166;-68
2020/12/22 00:19:31;;;;;;;14.13;11.40;;;12.70;94.60;;;;;;4449640;32;20159;-67
2020/12/22 00:21:58;;;;;;;16.37;12.00;;;12.70;94.60;;;;;;4447685;32;20147;-67
2020/12/22 00:24:24;;;;;;;17.37;12.33;;;12.70;94.60;;;;;;4451793;32;20235;-68
2020/12/22 00:26:50;;;;;;;14.77;11.87;;;12.70;94.60;;;;;;4450439;32;20214;-70
2020/12/22 00:29:18;;;;;;;13.40;11.60;;;12.70;94.60;;;;;;4453045;32;20635;-70
2020/12/22 00:31:44;;;;;;;15.90;12.17;;;12.70;94.60;;;;;;4449825;32;20151;-68
2020/12/22 00:34:11;;;;;;;16.07;11.43;;;12.70;94.60;;;;;;4437313;32;20277;-67
2020/12/22 00:36:38;;;;;;;16.53;12.07;;;12.70;94.50;;;;;;4445188;32;20159;-67
2020/12/22 00:39:04;;;;;;;15.87;11.80;;;12.80;94.50;;;;;;4443453;32;20227;-69
2020/12/22 00:41:30;;;;;;;13.83;11.43;;;12.70;94.50;;;;;;4436816;32;20203;-67
2020/12/22 00:43:57;;;;;;;14.57;10.90;;;12.70;94.40;;;;;;4441985;32;20218;-67
2020/12/22 00:46:23;;;;;;;12.03;9.90;;;12.80;94.50;;;;;;4436732;32;20586;-66
2020/12/22 00:48:49;;;;;;;10.77;9.47;;;12.70;94.40;;;;;;4438286;32;20225;-68
2020/12/22 00:51:23;;;;;;;12.27;8.70;;;12.70;94.40;;;;;;4439253;32;20270;-68
2020/12/22 00:53:50;;;;;;;12.13;8.93;;;12.70;94.50;;;;;;4439392;32;20182;-66
2020/12/22 00:56:22;;;;;;;12.87;8.77;;;12.70;94.50;;;;;;4446740;32;20177;-67
2020/12/22 00:58:48;;;;;;;9.53;7.67;;;12.70;94.50;;;;;;4454116;32;20557;-68
2020/12/22 01:01:14;;;;;;;11.13;8.07;;;12.70;94.50;;;;;;4444961;32;20251;-68
2020/12/22 01:03:40;;;;;;;12.67;8.47;;;12.80;94.50;;;;;;4449006;32;20687;-66
2020/12/22 01:06:07;;;;;;;10.67;7.80;;;12.70;94.50;;;;;;4441110;32;20539;-68
2020/12/22 01:08:34;;;;;;;9.17;7.60;;;12.70;94.50;;;;;;4436581;32;20277;-65
2020/12/22 01:11:00;;;;;;;12.17;7.90;;;12.70;94.50;;;;;;4443300;32;20264;-66
2020/12/22 01:13:26;;;;;;;10.50;7.87;;;12.70;94.60;;;;;;4451137;32;20214;-69
2020/12/22 01:15:53;;;;;;;10.37;7.53;;;12.70;94.60;;;;;;4442075;32;20214;-66
2020/12/22 01:18:19;;;;;;;11.13;7.43;;;12.70;94.60;;;;;;4436894;32;20177;-66
2020/12/22 01:20:48;;;;;;;9.70;6.03;;;12.70;94.60;;;;;;4437455;32;20269;-66
2020/12/22 01:23:14;;;;;;;8.20;5.27;;;12.70;94.60;;;;;;4437474;32;20230;-66
2020/12/22 01:25:41;;;;;;;5.20;4.50;;;12.80;94.60;;;;;;4450904;32;20434;-66
2020/12/22 01:28:08;;;;;;;5.77;4.53;;;12.80;94.60;;;;;;4448366;32;20181;-69
2020/12/22 01:30:36;;;;;;;4.63;3.40;;;12.70;94.60;;;;;;4446344;32;20155;-67
2020/12/22 01:33:05;;;;;;;4.30;3.83;;;12.70;94.60;;;;;;4452185;32;20248;-68
2020/12/22 01:35:32;;;;;;;3.77;3.37;;;12.70;94.70;;;;;;4445540;32;20592;-66
2020/12/22 01:37:58;;;;;;;4.80;2.63;;;12.70;94.60;;;;;;4452140;32;20194;-66
2020/12/22 01:40:25;;;;;;;5.47;3.00;;;12.70;94.60;;;;;;4448972;32;20150;-67
2020/12/22 01:42:53;;;;;;;3.13;2.83;;;12.70;94.60;;;;;;4444207;32;20201;-68
2020/12/22 01:45:20;;;;;;;4.80;3.57;;;12.70;94.70;;;;;;4446587;32;20234;-67
2020/12/22 01:47:48;;;;;;;4.37;3.77;;;12.70;94.60;;;;;;4438063;32;20517;-67
2020/12/22 01:50:16;;;;;;;4.90;4.37;;;12.70;94.70;;;;;;4450711;32;20177;-69
2020/12/22 01:52:43;;;;;;;6.37;4.80;;;12.60;94.70;;;;;;4452708;32;20219;-68
2020/12/22 01:55:09;;;;;;;6.90;5.67;;;12.70;94.70;;;;;;4450536;32;20216;-66
2020/12/22 01:57:36;;;;;;;9.50;5.77;;;12.70;94.80;;;;;;4450395;32;20689;-67
2020/12/22 02:00:04;;;;;;;8.47;5.73;;;12.70;94.80;;;;;;4441655;32;20206;-69
2020/12/22 02:02:31;;;;;;;9.37;6.23;;;12.70;94.80;;;;;;4435391;32;20211;-67
2020/12/22 02:04:57;;;;;;;7.00;5.47;;;12.70;94.80;;;;;;4444278;32;20256;-69
2020/12/22 02:07:23;;;;;;;6.17;4.97;;;12.70;94.70;;;;;;4447923;32;20618;-66
2020/12/22 02:09:49;;;;;;;5.10;4.60;;;12.70;94.80;;;;;;4443408;32;20155;-66
2020/12/22 02:12:19;;;;;;;5.00;4.20;;;12.80;94.80;;;;;;4440819;32;20226;-66
2020/12/22 02:14:48;;;;;;;4.73;4.00;;;12.70;94.80;;;;;;4443476;32;20218;-65
2020/12/22 02:17:15;;;;;;;4.10;3.70;;;12.70;94.80;;;;;;4450934;32;20166;-66
2020/12/22 02:19:42;;;;;;;3.50;3.20;;;12.70;94.80;;;;;;4444760;32;20162;-66
2020/12/22 02:22:09;;;;;;;4.20;3.80;;;12.70;94.70;;;;;;4435715;32;20256;-69
2020/12/22 02:24:36;;;;;;;4.77;3.47;;;12.70;94.70;;;;;;4437913;32;20155;-68
2020/12/22 02:27:03;;;;;;;3.93;3.50;;;12.70;94.70;;;;;;4451037;32;20578;-68
2020/12/22 02:29:29;;;;;;;4.47;3.80;;;12.70;94.70;;;;;;4443518;32;20240;-65
2020/12/22 02:32:00;;;;;;;6.13;4.03;;;12.70;94.70;;;;;;4447010;32;20267;-67
2020/12/22 02:34:29;;;;;;;4.53;4.03;;;12.70;94.70;;;;;;4435707;32;20203;-67
2020/12/22 02:36:56;;;;;;;5.37;3.70;;;12.70;94.80;;;;;;4435638;32;20238;-70
2020/12/22 02:39:23;;;;;;;5.23;3.87;;;12.70;94.70;;;;;;4445493;32;20219;-67
2020/12/22 02:41:50;;;;;;;6.57;4.50;;;12.70;94.80;;;;;;4443157;32;20189;-67
2020/12/22 02:44:16;;;;;;;7.50;4.50;;;12.70;94.80;;;;;;4440176;32;20213;-68
2020/12/22 02:46:42;;;;;;;5.73;3.77;;;12.70;94.80;;;;;;4440631;32;20180;-70
2020/12/22 02:49:08;;;;;;;5.70;3.73;;;12.70;94.70;;;;;;4450048;32;20204;-68
2020/12/22 02:51:35;;;;;;;5.83;3.60;;;12.70;94.70;;;;;;4448261;32;20215;-67
2020/12/22 02:54:01;;;;;;;7.10;4.13;;;12.70;94.70;;;;;;4439438;32;20163;-70
2020/12/22 02:56:30;;;;;;;4.13;3.17;;;12.70;94.70;;;;;;4447724;32;20188;-67
2020/12/22 02:58:56;;;;;;;4.10;3.67;;;12.60;94.70;;;;;;4452631;32;20182;-70
2020/12/22 03:01:24;;;;;;;5.80;3.40;;;12.60;94.70;;;;;;4441252;32;20174;-66
2020/12/22 03:03:51;;;;;;;5.73;2.73;;;12.60;94.70;;;;;;4452666;32;20256;-66
2020/12/22 03:06:17;;;;;;;5.63;3.10;;;12.70;94.70;;;;;;4436969;32;20605;-67
2020/12/22 03:08:43;;;;;;;4.00;3.60;;;12.60;95.00;;;;;;4443963;32;20217;-66
2020/12/22 03:11:10;;;;;;;3.70;3.30;;;12.60;94.70;;;;;;4441468;32;20151;-67
2020/12/22 03:13:37;;;;;;;5.63;3.43;;;12.60;94.70;;;;;;4448965;32;20497;-66
2020/12/22 03:16:03;;;;;;;4.80;4.30;;;12.60;94.60;;;;;;4447425;32;20236;-66
2020/12/22 03:18:29;;;;;;;7.80;4.40;;;12.60;94.60;;;;;;4452424;32;20264;-65
2020/12/22 03:20:56;;;;;;;11.60;4.87;;;12.70;94.90;;;;;;4439706;32;20246;-65
2020/12/22 03:23:22;;;;;;;5.77;3.83;;;12.60;94.40;;;;;;4435717;32;20264;-69
2020/12/22 03:25:48;;;;;;;10.83;4.87;;;12.60;94.70;;;;;;4446616;32;20150;-64
2020/12/22 03:28:14;;;;;;;7.70;4.70;;;12.60;94.40;;;;;;4452513;32;20167;-66
2020/12/22 03:30:41;;;;;;;19.07;5.10;;;12.60;94.40;;;;;;4449135;32;20206;-67
2020/12/22 03:33:08;;;;;;;12.20;4.53;;;12.60;94.40;;;;;;4438984;32;20223;-68
2020/12/22 03:35:34;;;;;;;8.03;4.63;;;12.60;94.20;;;;;;4434870;32;20180;-66
2020/12/22 03:38:00;;;;;;;8.53;4.10;;;12.50;94.20;;;;;;4436412;32;20267;-66
2020/12/22 03:40:27;;;;;;;12.80;4.63;;;12.50;94.20;;;;;;4435118;32;20264;-67
2020/12/22 03:42:53;;;;;;;9.03;4.40;;;12.50;94.10;;;;;;4437719;32;20544;-66
2020/12/22 03:45:19;;;;;;;10.50;4.47;;;12.50;94.20;;;;;;4435883;32;20241;-68
2020/12/22 03:47:47;;;;;;;9.47;3.37;;;12.50;94.20;;;;;;4434688;32;20194;-66
2020/12/22 03:50:14;;;;;;;9.47;3.20;;;12.60;94.40;;;;;;4434578;32;20143;-66
2020/12/22 03:52:42;;;;;;;6.30;3.07;;;12.60;94.00;;;;;;4443857;32;20163;-67
2020/12/22 03:55:11;;;;;;;10.90;4.17;;;12.50;94.00;;;;;;4439046;32;20150;-68
2020/12/22 03:57:38;;;;;;;14.07;4.60;;;12.50;94.00;;;;;;4445134;32;20219;-65
2020/12/22 04:00:06;;;;;;;9.90;4.50;;;12.50;94.00;;;;;;4439959;32;20154;-67
2020/12/22 04:02:32;;;;;;;13.63;4.83;;;12.50;94.00;;;;;;4439204;32;20242;-67
2020/12/22 04:04:59;;;;;;;13.87;5.00;;;12.50;94.10;;;;;;4446514;32;20154;-66
2020/12/22 04:07:28;;;;;;;8.60;4.30;;;12.60;94.10;;;;;;4438934;32;20202;-66
2020/12/22 04:09:56;;;;;;;9.23;4.60;;;12.50;94.10;;;;;;4442813;32;20504;-68
2020/12/22 04:12:25;;;;;;;11.10;4.43;;;12.50;94.00;;;;;;4435060;32;20139;-67
2020/12/22 04:14:56;;;;;;;13.90;5.33;;;12.50;94.10;;;;;;4442728;32;20275;-67
2020/12/22 04:17:22;;;;;;;8.40;4.27;;;12.50;94.00;;;;;;4440603;32;20154;-67
2020/12/22 04:19:48;;;;;;;11.00;4.13;;;12.50;94.00;;;;;;4440097;32;20198;-69
2020/12/22 04:22:15;;;;;;;9.83;4.90;;;12.50;94.00;;;;;;4442327;32;20222;-66
2020/12/22 04:24:42;;;;;;;9.17;4.13;;;12.50;94.00;;;;;;4441514;32;20276;-66
2020/12/22 04:27:08;;;;;;;15.37;4.23;;;12.40;94.00;;;;;;4436363;32;20308;-64
2020/12/22 04:29:34;;;;;;;11.37;3.80;;;12.50;94.00;;;;;;4447229;32;20554;-66
2020/12/22 04:32:00;;;;;;;9.07;3.27;;;12.50;93.90;;;;;;4441620;32;20746;-66
2020/12/22 04:34:27;;;;;;;12.70;3.93;;;12.40;93.90;;;;;;4449996;32;20319;-65
2020/12/22 04:36:57;;;;;;;13.83;3.50;;;12.50;93.90;;;;;;4434087;32;20223;-67
2020/12/22 04:39:24;;;;;;;11.47;3.27;;;12.40;93.90;;;;;;4445954;32;20177;-67
2020/12/22 04:41:50;;;;;;;11.90;3.33;;;12.40;93.70;;;;;;4441294;32;20248;-67
2020/12/22 04:44:17;;;;;;;12.93;3.30;;;12.40;94.00;;;;;;4434292;32;20198;-66
2020/12/22 04:46:49;;;;;;;7.13;2.43;;;12.40;93.70;;;;;;4444719;32;20553;-69
2020/12/22 04:49:18;;;;;;;11.30;2.73;;;12.40;93.50;;;;;;4437215;32;20146;-66
2020/12/22 04:51:48;;;;;;;11.97;2.90;;;12.40;93.50;;;;;;4436355;32;20241;-67
2020/12/22 04:54:17;;;;;;;8.33;2.73;;;12.40;93.50;;;;;;4438405;32;20312;-68
2020/12/22 04:56:45;;;;;;;7.63;3.00;;;12.40;93.50;;;;;;4434585;32;20266;-66
2020/12/22 04:59:12;;;;;;;6.10;2.73;;;12.40;93.40;;;;;;4432886;32;20227;-68
2020/12/22 05:01:39;;;;;;;12.57;2.57;;;12.40;93.40;;;;;;4441992;32;20169;-65
2020/12/22 05:04:05;;;;;;;6.57;2.17;;;12.30;93.40;;;;;;4448185;32;20229;-65
2020/12/22 05:06:35;;;;;;;16.07;2.53;;;12.30;93.50;;;;;;4439945;32;20155;-68
2020/12/22 05:09:04;;;;;;;9.90;2.70;;;12.30;93.50;;;;;;4438155;32;20156;-65
2020/12/22 05:11:35;;;;;;;13.13;2.63;;;12.40;93.50;;;;;;4442167;32;20575;-67
2020/12/22 05:14:02;;;;;;;10.90;2.33;;;12.30;93.50;;;;;;4438214;32;20170;-68
2020/12/22 05:16:30;;;;;;;7.87;2.30;;;12.30;93.50;;;;;;4442367;32;20240;-66
2020/12/22 05:18:59;;;;;;;10.73;2.50;;;12.30;93.80;;;;;;4438149;32;20225;-71
2020/12/22 05:21:26;;;;;;;9.97;2.23;;;12.30;93.40;;;;;;4435146;32;20151;-67
2020/12/22 05:23:55;;;;;;;10.40;2.80;;;12.30;93.30;;;;;;4441445;32;20213;-67
2020/12/22 05:26:27;;;;;;;7.20;2.33;;;12.40;93.30;;;;;;4433712;32;20222;-66
2020/12/22 05:28:56;;;;;;;13.30;2.00;;;12.30;93.20;;;;;;4436102;32;20203;-64
2020/12/22 05:31:29;;;;;;;7.70;2.00;;;12.30;93.20;;;;;;4436903;32;20590;-66
2020/12/22 05:33:56;;;;;;;9.60;2.37;;;12.40;93.10;;;;;;4441734;32;20587;-65
2020/12/22 05:36:28;;;;;;;18.07;3.13;;;12.30;93.10;;;;;;4436564;32;20151;-68
2020/12/22 05:39:00;;;;;;;8.77;2.27;;;12.30;92.80;;;;;;4445541;32;20229;-68
2020/12/22 05:41:26;;;;;;;9.63;2.40;;;12.30;92.90;;;;;;4450266;32;20198;-69
2020/12/22 05:43:53;;;;;;;11.93;2.90;;;12.30;92.80;;;;;;4444435;32;20174;-66
2020/12/22 05:46:21;;;;;;;14.53;2.70;;;12.30;92.80;;;;;;4437832;32;20198;-68
2020/12/22 05:48:50;;;;;;;9.03;3.00;;;12.30;93.00;;;;;;4437391;32;20173;-69
2020/12/22 05:51:17;;;;;;;14.10;3.47;;;12.20;93.00;;;;;;4437254;32;20199;-66
2020/12/22 05:53:44;;;;;;;10.93;2.47;;;12.20;93.00;;;;;;4443468;32;20605;-66
2020/12/22 05:56:17;;;;;;;8.80;3.00;;;12.30;92.90;;;;;;4446465;32;20222;-66
2020/12/22 05:58:48;;;;;;;10.70;3.13;;;12.30;92.70;;;;;;4446224;32;20214;-64
2020/12/22 06:01:29;;;;;;;12.97;2.77;;;12.30;92.70;;;;;;4436939;32;20143;-66
2020/12/22 06:03:58;;;;;;;13.57;3.77;;;12.30;92.70;;;;;;4442246;32;20188;-65
2020/12/22 06:06:29;;;;;;;13.90;3.20;;;12.30;92.60;;;;;;4450434;32;20163;-66
2020/12/22 06:08:56;;;;;;;14.43;2.87;;;12.30;92.70;;;;;;4439413;32;20182;-65
2020/12/22 06:11:29;;;;;;;11.80;2.60;;;12.30;92.60;;;;;;4436528;32;20211;-69
2020/12/22 06:14:04;;;;;;;13.33;3.03;;;12.30;92.60;;;;;;4435917;32;20162;-66
2020/12/22 06:16:30;;;;;;;8.83;3.10;;;12.30;92.60;;;;;;4436077;32;20193;-66
2020/12/22 06:18:58;;;;;;;12.30;3.53;;;12.30;92.60;;;;;;4438203;32;20173;-66
2020/12/22 06:21:26;;;;;;;11.07;2.80;;;12.20;92.70;;;;;;4445797;32;20527;-67
2020/12/22 06:23:54;;;;;;;12.03;2.90;;;12.20;92.70;;;;;;4450501;32;20217;-66
2020/12/22 06:26:21;;;;;;;13.00;2.93;;;12.20;92.80;;;;;;4451145;32;20236;-66
2020/12/22 06:28:51;;;;;;;14.60;3.17;;;12.20;92.70;;;;;;4451225;32;20164;-66
2020/12/22 06:31:22;;;;;;;12.17;3.20;;;12.20;92.60;;;;;;4445493;32;20563;-66
2020/12/22 06:33:49;;;;;;;18.67;3.63;;;12.20;92.90;;;;;;4451292;32;20142;-66
2020/12/22 06:36:20;;;;;;;14.10;2.77;;;12.20;92.70;;;;;;4450328;32;20251;-70
2020/12/22 06:38:55;;;;;;;14.07;2.77;;;12.20;92.50;;;;;;4443102;32;20153;-70
2020/12/22 06:41:50;;;;;;;11.07;2.83;;;12.20;92.60;;;;;;4437952;32;20150;-68
2020/12/22 06:44:25;;;;;;;12.30;2.40;;;12.20;92.60;;;;;;4387996;32;20207;-68
2020/12/22 06:46:53;;;;;;;9.40;2.70;;;12.20;92.50;;;;;;4382988;32;20186;-68
2020/12/22 06:49:48;;;;;;;12.50;2.30;;;12.20;92.40;;;;;;4372744;32;20210;-65
2020/12/22 06:52:35;;;;;;;15.77;2.93;;;12.20;92.30;;;;;;4381480;32;20160;-66
2020/12/22 06:55:13;;;;;;;10.50;2.30;;;12.10;92.30;;;;;;4389237;32;20182;-67
2020/12/22 06:57:50;;;;;;;13.37;2.50;;;12.10;92.20;;;;;;4380513;32;20156;-67
2020/12/22 07:00:37;;;;;;;13.03;2.50;;;12.10;92.30;;;;;;4376002;32;20267;-68
2020/12/22 07:03:15;;;;;;;17.77;3.03;;;12.10;92.30;;;;;;4377344;32;20439;-67
2020/12/22 07:05:43;;;;;;;14.33;3.00;;;12.10;92.20;;;;;;4372590;32;20163;-66
2020/12/22 07:08:11;;;;;;;13.73;2.90;;;12.00;92.40;;;;;;4373350;32;20210;-69
2020/12/22 07:10:39;;;;;;;14.80;2.50;;;12.00;92.40;;;;;;4380420;32;20207;-66
2020/12/22 07:13:08;;;;;;;11.37;2.40;;;12.00;92.40;;;;;;4388202;32;20263;-66
2020/12/22 07:15:36;;;;;;;10.40;2.50;;;11.90;92.50;;;;;;4378323;32;20660;-66
2020/12/22 07:18:10;;;;;;;23.23;3.20;;;12.00;92.50;;;;;;4372489;32;20182;-66
2020/12/22 07:20:39;;;;;;;18.33;3.77;;;11.90;92.50;;;;;;4400455;32;20535;-68
2020/12/22 07:23:12;;;;;;;20.13;3.77;;;11.90;92.60;;;;;;4436925;32;20208;-65
2020/12/22 07:25:41;;;;;;;10.60;2.43;;;11.90;92.70;;;;;;4435631;32;20197;-68
2020/12/22 07:28:10;;;;;;;15.43;2.40;;;11.90;92.80;;;;;;4439126;32;20219;-68
2020/12/22 07:30:37;;;;;;;18.77;3.23;;;11.90;92.90;;;;;;4442369;32;20278;-67
2020/12/22 07:33:04;;;;;;;9.13;3.20;;;11.90;93.10;;;;;;4444796;32;20255;-66
2020/12/22 07:35:32;;;;;;;10.17;2.90;;;11.80;93.20;;;;;;4439185;32;20222;-69
2020/12/22 07:38:03;;;;;;;18.40;2.97;;;11.80;93.20;;;;;;4437442;32;20185;-66
2020/12/22 07:40:30;;;;;;;14.50;2.93;;;11.80;93.30;;;;;;4440854;32;20645;-69
2020/12/22 07:43:07;;;;;;;17.97;3.30;;;11.80;93.10;;;;;;4440680;32;20174;-68
2020/12/22 07:45:36;;;;;;;20.07;3.23;;;11.80;93.10;;;;;;4439827;32;20211;-66
2020/12/22 07:48:06;;;;;;;12.50;2.40;;;11.70;93.30;;;;;;4442514;32;20183;-70
2020/12/22 07:50:35;;;;;;;13.07;2.93;;;11.70;93.40;;;;;;4439177;32;20523;-67
2020/12/22 07:53:03;;;;;;;11.40;2.60;;;11.80;93.40;;;;;;4442530;32;20231;-68
2020/12/22 07:55:40;;;;;;;13.43;2.47;;;11.80;93.40;;;;;;4441051;32;20163;-67
2020/12/22 07:58:07;;;;;;;15.27;2.70;;;11.80;93.20;;;;;;4445434;32;20154;-69
2020/12/22 08:00:34;;;;;;;13.50;3.00;;;11.80;93.20;;;;;;4441514;32;20145;-67
2020/12/22 08:03:15;;;;;;;19.27;3.33;;;11.80;93.10;;;;;;4446733;32;20177;-68
2020/12/22 08:05:59;;;;;;;20.70;4.80;;;11.80;93.00;;;;;;4439312;32;20218;-66
2020/12/22 08:08:25;;;;;;;23.20;4.53;;;11.80;93.00;;;;;;4441890;32;20197;-69
2020/12/22 08:10:56;;;;;;;17.53;3.10;;;11.80;92.90;;;;;;4444981;32;20252;-68
2020/12/22 08:13:27;;;;;;;20.30;4.13;;;11.80;92.80;;;;;;4444862;32;20151;-67
2020/12/22 08:15:54;;;;;;;18.27;3.63;;;11.80;92.80;;;;;;4442087;32;20903;-67
2020/12/22 08:18:26;;;;;;;21.43;4.50;;;11.80;92.80;;;;;;4443693;32;20223;-67
2020/12/22 08:20:57;;;;;;;24.67;4.73;;;11.80;92.80;;;;;;4443283;32;20190;-66
2020/12/22 08:23:29;;;;;;;18.13;3.93;;;11.80;92.80;;;;;;4443596;32;20182;-66
2020/12/22 08:26:04;;;;;;;26.23;4.60;;;11.80;92.70;;;;;;4440506;32;20245;-66
2020/12/22 08:28:34;;;;;;;21.23;4.63;;;11.80;92.70;;;;;;4445769;32;20568;-69
2020/12/22 08:31:09;;;;;;;18.07;5.13;;;11.80;92.60;;;;;;4443072;32;20155;-71
2020/12/22 08:33:42;;;;;;;27.17;5.90;;;11.80;92.60;;;;;;4443049;32;20166;-69
2020/12/22 08:36:14;;;;;;;24.20;5.07;;;11.80;92.50;;;;;;4443523;32;20275;-69
2020/12/22 08:38:40;;;;;;;24.07;5.07;;;11.80;92.60;;;;;;4442296;32;20505;-70
2020/12/22 08:41:16;;;;;;;24.87;6.13;;;11.80;92.60;;;;;;4445512;32;20168;-70
2020/12/22 08:43:51;;;;;;;28.53;4.70;;;11.80;92.70;;;;;;4439911;32;20219;-72
2020/12/22 08:46:18;;;;;;;32.70;5.17;;;11.80;92.80;;;;;;4442103;32;20196;-71
2020/12/22 08:48:46;;;;;;;23.53;5.53;;;11.80;93.00;;;;;;4444618;32;20214;-71
2020/12/22 08:51:28;;;;;;;21.23;4.67;;;11.70;93.00;;;;;;4443705;32;20171;-70
2020/12/22 08:54:00;;;;;;;25.87;5.33;;;11.70;93.10;;;;;;4445653;32;20229;-71
2020/12/22 08:56:31;;;;;;;27.30;5.03;;;11.70;93.10;;;;;;4445367;32;20203;-67
2020/12/22 08:58:59;;;;;;;25.63;5.43;;;11.80;93.10;;;;;;4439454;32;20222;-67
2020/12/22 09:01:29;;;;;;;31.60;6.40;;;11.70;93.10;;;;;;4440722;32;20166;-70
2020/12/22 09:03:57;;;;;;;33.50;6.57;;;11.70;93.10;;;;;;4445166;32;20180;-68
2020/12/22 09:06:40;;;;;;;27.77;6.13;;;11.70;93.20;;;;;;4444986;32;20579;-68
2020/12/22 09:09:10;;;;;;;32.67;7.53;;;11.80;93.40;;;;;;4441116;32;20191;-66
2020/12/22 09:11:38;;;;;;;40.97;7.90;;;11.60;93.40;;;;;;4440413;32;20254;-68
2020/12/22 09:14:11;;;;;;;38.23;7.13;;;11.60;93.40;;;;;;4443675;32;20234;-67
2020/12/22 09:16:59;;;;;;;39.30;7.50;;;11.70;93.50;;;;;;4441742;32;20467;-67
2020/12/22 09:19:39;;;;;;;31.73;7.37;;;11.70;93.70;;;;;;4371833;32;20276;-67
2020/12/22 09:22:11;;;;;;;38.33;7.30;;;11.70;93.40;;;;;;4371638;32;20262;-68
2020/12/22 09:24:44;;;;;;;35.87;7.73;;;11.70;93.40;;;;;;4373390;32;20181;-68
2020/12/22 09:27:13;;;;;;;27.57;7.13;;;11.70;93.50;;;;;;4370189;32;20206;-69
2020/12/22 09:29:41;;;;;;;40.73;8.90;;;11.80;93.50;;;;;;4371967;32;20162;-71
2020/12/22 09:32:11;;;;;;;39.33;9.23;;;11.70;93.40;;;;;;4371417;32;20182;-66
2020/12/22 09:34:39;;;;;;;38.50;9.43;;;11.70;93.50;;;;;;4371589;32;20208;-70
2020/12/22 09:37:12;;;;;;;43.30;7.83;;;11.70;93.60;;;;;;4372068;32;20235;-67
2020/12/22 09:39:45;;;;;;;20.70;5.87;;;11.80;93.70;;;;;;4368221;32;20648;-68
2020/12/22 09:42:15;;;;;;;22.63;5.83;;;11.70;93.00;;;;;;4368852;32;20175;-69
2020/12/22 09:44:44;;;;;;;28.87;4.90;;;11.70;93.00;;;;;;4369648;32;20245;-67
2020/12/22 09:47:10;;;;;;;19.77;4.87;;;11.70;93.10;;;;;;4370360;32;20193;-70
2020/12/22 09:49:37;;;;;;;24.27;4.83;;;11.60;93.10;;;;;;4368970;32;20227;-68
2020/12/22 09:52:06;;;;;;;13.30;3.50;;;11.60;92.90;;;;;;4371177;32;20195;-70
2020/12/22 09:54:33;;;;;;;16.50;3.93;;;11.50;92.80;;;;;;4372984;32;20714;-69
2020/12/22 09:56:59;;;;;;;17.03;4.03;;;11.50;92.90;;;;;;4424086;32;20199;-68
2020/12/22 09:59:28;;;;;;;17.03;4.83;;;11.50;92.90;;;;;;4440329;32;20223;-69
2020/12/22 10:01:58;;;;;;;20.57;4.10;;;11.60;92.90;;;;;;4439881;32;20175;-68
2020/12/22 10:04:25;;;;;;;18.13;4.37;;;11.50;92.80;;;;;;4441189;32;20251;-67
2020/12/22 10:06:52;;;;;;;11.47;3.80;;;11.50;92.70;;;;;;4439198;32;20235;-68
2020/12/22 10:09:18;;;;;;;15.23;4.00;;;11.60;92.80;;;;;;4436462;32;20183;-67
2020/12/22 10:11:45;;;;;;;17.10;4.30;;;11.60;92.80;;;;;;4437495;32;20191;-70
2020/12/22 10:14:11;;;;;;;14.87;3.40;;;11.60;92.60;;;;;;4440527;32;20141;-70
2020/12/22 10:16:39;;;;;;;15.73;2.83;;;11.50;92.60;;;;;;4442661;32;20192;-67
2020/12/22 10:19:05;;;;;;;11.30;3.47;;;11.50;92.30;;;;;;4440891;32;20230;-69
2020/12/22 10:21:32;;;;;;;11.67;3.63;;;11.40;92.50;;;;;;4443013;32;20579;-67
2020/12/22 10:24:04;;;;;;;17.23;4.33;;;11.20;92.70;;;;;;4440268;32;20158;-69
2020/12/22 10:26:31;;;;;;;9.07;3.10;;;11.30;92.70;;;;;;4436664;32;20205;-72
2020/12/22 10:29:02;;;;;;;14.07;3.57;;;11.30;92.70;;;;;;4439353;32;20646;-68
2020/12/22 10:31:28;;;;;;;6.67;3.27;;;11.20;92.50;;;;;;4441131;32;20248;-68
2020/12/22 10:33:56;;;;;;;12.00;3.20;;;11.10;92.50;;;;;;4441473;32;20216;-65
2020/12/22 10:36:24;;;;;;;9.67;3.23;;;11.10;92.50;;;;;;4440221;32;20158;-67
2020/12/22 10:38:51;;;;;;;8.03;3.43;;;11.00;92.30;;;;;;4440565;32;20232;-68
2020/12/22 10:41:18;;;;;;;8.83;3.20;;;11.00;92.80;;;;;;4441171;32;20159;-67
2020/12/22 10:43:44;;;;;;;13.50;3.50;;;11.00;92.90;;;;;;4440750;32;20253;-68
2020/12/22 10:46:11;;;;;;;11.47;3.33;;;11.10;92.90;;;;;;4437968;32;20235;-69
2020/12/22 10:48:37;;;;;;;8.47;3.50;;;11.10;92.80;;;;;;4434139;32;20230;-69
2020/12/22 10:51:07;;;;;;;12.47;4.53;;;11.10;92.60;;;;;;4433306;32;20173;-68
2020/12/22 10:53:35;;;;;;;11.60;5.90;;;11.00;92.30;;;;;;4440559;32;20582;-66
2020/12/22 10:56:02;;;;;;;12.27;5.23;;;10.90;92.40;;;;;;4441196;32;20214;-70
2020/12/22 10:58:29;;;;;;;14.70;6.17;;;10.80;92.60;;;;;;4443521;32;20457;-67
2020/12/22 11:00:55;;;;;;;13.33;6.90;;;10.80;92.70;;;;;;4439239;32;20229;-68
2020/12/22 11:03:22;;;;;;;17.87;6.60;;;10.70;92.90;;;;;;4441664;32;20162;-67
2020/12/22 11:06:08;;;;;;;14.73;5.60;;;10.80;92.80;;;;;;4439750;32;20620;-67
2020/12/22 11:08:36;;;;;;;13.17;6.23;;;10.60;92.40;;;;;;4440036;32;20554;-68
2020/12/22 11:11:04;;;;;;;9.33;6.60;;;10.70;92.10;;;;;;4440715;32;20158;-67
2020/12/22 11:13:30;;;;;;;14.47;6.87;;;10.60;92.10;;;;;;4439260;32;20612;-68
2020/12/22 11:15:57;;;;;;;14.13;6.77;;;10.60;92.20;;;;;;4436511;32;20321;-68
2020/12/22 11:18:23;;;;;;;18.33;7.67;;;10.50;92.20;;;;;;4431986;32;20549;-69
2020/12/22 11:20:51;;;;;;;18.80;7.10;;;10.50;92.40;;;;;;4437611;32;20510;-68
2020/12/22 11:23:17;;;;;;;19.40;7.93;;;10.40;92.70;;;;;;4442682;32;20730;-69
2020/12/22 11:25:44;;;;;;;16.87;6.53;;;10.60;92.60;;;;;;4438471;32;20178;-68
2020/12/22 11:28:14;;;;;;;17.80;7.67;;;10.60;92.30;;;;;;4439841;32;20223;-69
2020/12/22 11:30:40;;;;;;;15.73;6.87;;;10.60;92.40;;;;;;4440736;32;20256;-69
2020/12/22 11:33:07;;;;;;;14.80;7.47;;;10.60;92.30;;;;;;4442859;32;20627;-68
2020/12/22 11:35:36;;;;;;;16.87;8.53;;;10.70;91.90;;;;;;4439756;32;20523;-68
2020/12/22 11:38:33;;;;;;;20.83;8.73;;;10.80;92.10;;;;;;4453148;32;20147;-70
2020/12/22 11:41:03;;;;;;;20.37;7.97;;;10.80;92.20;;;;;;4453935;32;20561;-68
2020/12/22 11:43:29;;;;;;;20.70;7.47;;;10.90;91.60;;;;;;4455558;32;20167;-68
2020/12/22 11:45:55;;;;;;;18.83;7.47;;;10.80;91.60;;;;;;4442071;32;20620;-67
2020/12/22 11:48:24;;;;;;;15.13;6.70;;;10.80;91.80;;;;;;4438501;32;20231;-68
2020/12/22 11:50:53;;;;;;;12.60;7.13;;;10.70;91.20;;;;;;4447681;32;20154;-67
2020/12/22 11:53:35;;;;;;;12.43;6.27;;;10.70;91.40;;;;;;4446078;32;20234;-69
2020/12/22 11:56:15;;;;;;;16.90;5.97;;;10.60;91.10;;;;;;4451177;32;20197;-69
2020/12/22 11:58:44;;;;;;;17.33;5.40;;;10.60;91.00;;;;;;4439900;32;20163;-69
2020/12/22 12:01:13;;;;;;;22.63;6.87;;;10.60;91.10;;;;;;4438246;32;20159;-68
2020/12/22 12:03:43;;;;;;;12.73;6.10;;;10.60;91.30;;;;;;4437854;32;20153;-68
2020/12/22 12:06:31;;;;;;;16.97;7.27;;;10.70;91.40;;;;;;4437968;32;20150;-68
2020/12/22 12:09:18;;;;;;;17.70;6.37;;;10.70;91.50;;;;;;4437961;32;20224;-69
2020/12/22 12:11:50;;;;;;;12.17;6.80;;;10.80;91.50;;;;;;4375152;32;20677;-69
2020/12/22 12:14:32;;;;;;;16.30;7.13;;;10.80;90.90;;;;;;4375063;32;20781;-69
2020/12/22 12:17:03;;;;;;;22.40;7.83;;;10.80;90.40;;;;;;4376654;32;20163;-70
2020/12/22 12:19:32;;;;;;;14.13;7.20;;;10.80;90.70;;;;;;4374856;32;20236;-68
2020/12/22 12:21:58;;;;;;;14.93;6.40;;;10.80;90.70;;;;;;4375094;32;20149;-69
2020/12/22 12:24:25;;;;;;;18.47;6.77;;;10.80;90.20;;;;;;4376753;32;20220;-69
2020/12/22 12:26:52;;;;;;;10.07;6.90;;;10.90;90.60;;;;;;4374443;32;20227;-69
2020/12/22 12:29:18;;;;;;;13.93;6.27;;;10.90;90.20;;;;;;4374739;32;20550;-69
2020/12/22 12:31:46;;;;;;;12.10;6.20;;;10.90;90.00;;;;;;4374609;32;20581;-70
2020/12/22 12:34:13;;;;;;;18.77;6.53;;;10.70;90.40;;;;;;4364724;32;20185;-68
2020/12/22 12:36:58;;;;;;;10.23;5.57;;;10.60;90.70;;;;;;4374869;32;20224;-68
2020/12/22 12:39:24;;;;;;;12.30;5.73;;;10.60;90.50;;;;;;4375667;32;20229;-69
2020/12/22 12:42:11;;;;;;;8.87;5.27;;;10.70;90.70;;;;;;4374677;32;20616;-68
2020/12/22 12:44:37;;;;;;;9.30;5.70;;;10.70;90.80;;;;;;4374526;32;20228;-68
2020/12/22 12:47:05;;;;;;;13.00;5.40;;;10.80;90.10;;;;;;4374648;32;20258;-70
2020/12/22 12:53:02;;;;;;;13.07;5.57;;;10.80;90.10;;;;;;4408615;32;20534;-68